sensor_id;sensor_type;location;lat;lon;timestamp;pressure;altitude;pressure_sealevel;temperature;humidity
29909;BME280;36247;51.952;6.146;2022-08-19T00:01:50;101210.59;;;17.94;100.00
29909;BME280;36247;51.952;6.146;2022-08-19T00:04:17;101190.06;;;17.91;100.00
29909;BME280;36247;51.952;6.146;2022-08-19T00:06:47;101187.38;;;17.96;100.00
29909;BME280;36247;51.952;6.146;2022-08-19T00:09:15;101188.22;;;17.98;100.00
29909;BME280;36247;51.952;6.146;2022-08-19T00:11:42;101184.56;;;18.05;100.00
29909;BME280;36247;51.952;6.146;2022-08-19T00:14:12;101188.31;;;17.87;100.00
29909;BME280;36247;51.952;6.146;2022-08-19T00:16:39;101190.06;;;17.88;100.00
29909;BME280;36247;51.952;6.146;2022-08-19T00:19:06;101199.91;;;17.91;100.00
29909;BME280;36247;51.952;6.146;2022-08-19T00:21:32;101195.44;;;17.87;100.00
29909;BME280;36247;51.952;6.146;2022-08-19T00:23:58;101193.09;;;17.56;100.00
29909;BME280;36247;51.952;6.146;2022-08-19T00:26:27;101192.13;;;17.65;100.00
29909;BME280;36247;51.952;6.146;2022-08-19T00:28:53;101182.97;;;17.86;100.00
29909;BME280;36247;51.952;6.146;2022-08-19T00:31:19;101183.13;;;17.70;100.00
29909;BME280;36247;51.952;6.146;2022-08-19T00:33:44;101181.53;;;17.49;100.00
29909;BME280;36247;51.952;6.146;2022-08-19T00:36:10;101189.66;;;17.41;100.00
29909;BME280;36247;51.952;6.146;2022-08-19T00:38:37;101188.84;;;17.30;100.00
29909;BME280;36247;51.952;6.146;2022-08-19T00:41:06;101191.53;;;17.28;100.00
29909;BME280;36247;51.952;6.146;2022-08-19T00:43:33;101190.66;;;17.26;100.00
29909;BME280;36247;51.952;6.146;2022-08-19T00:45:59;101188.88;;;17.25;100.00
29909;BME280;36247;51.952;6.146;2022-08-19T00:48:26;101202.09;;;17.49;100.00
29909;BME280;36247;51.952;6.146;2022-08-19T00:50:53;101204.00;;;17.31;100.00
29909;BME280;36247;51.952;6.146;2022-08-19T00:53:21;101208.63;;;17.12;100.00
29909;BME280;36247;51.952;6.146;2022-08-19T00:55:50;101198.81;;;17.13;100.00
29909;BME280;36247;51.952;6.146;2022-08-19T00:58:20;101188.88;;;17.25;100.00
29909;BME280;36247;51.952;6.146;2022-08-19T01:00:47;101193.34;;;17.28;100.00
29909;BME280;36247;51.952;6.146;2022-08-19T01:03:17;101183.50;;;17.27;100.00
29909;BME280;36247;51.952;6.146;2022-08-19T01:05:44;101187.94;;;17.31;100.00
29909;BME280;36247;51.952;6.146;2022-08-19T01:08:11;101192.44;;;17.29;100.00
29909;BME280;36247;51.952;6.146;2022-08-19T01:10:40;101196.94;;;17.21;100.00
29909;BME280;36247;51.952;6.146;2022-08-19T01:13:06;101195.28;;;17.04;100.00
29909;BME280;36247;51.952;6.146;2022-08-19T01:15:38;101198.03;;;16.98;100.00
29909;BME280;36247;51.952;6.146;2022-08-19T01:18:08;101202.53;;;16.84;100.00
29909;BME280;36247;51.952;6.146;2022-08-19T01:20:35;101192.75;;;16.81;100.00
29909;BME280;36247;51.952;6.146;2022-08-19T01:23:02;101195.41;;;16.83;100.00
29909;BME280;36247;51.952;6.146;2022-08-19T01:25:42;101189.22;;;16.76;100.00
29909;BME280;36247;51.952;6.146;2022-08-19T01:28:16;101197.19;;;16.81;100.00
29909;BME280;36247;51.952;6.146;2022-08-19T01:30:44;101199.88;;;16.81;100.00
29909;BME280;36247;51.952;6.146;2022-08-19T01:33:10;101195.41;;;16.89;100.00
29909;BME280;36247;51.952;6.146;2022-08-19T01:35:35;101196.28;;;16.89;100.00
29909;BME280;36247;51.952;6.146;2022-08-19T01:38:05;101195.41;;;16.87;100.00
29909;BME280;36247;51.952;6.146;2022-08-19T01:40:35;101202.47;;;17.01;100.00
29909;BME280;36247;51.952;6.146;2022-08-19T01:43:02;101197.13;;;16.99;100.00
29909;BME280;36247;51.952;6.146;2022-08-19T01:45:30;101202.44;;;17.04;100.00
29909;BME280;36247;51.952;6.146;2022-08-19T01:47:56;101206.00;;;17.06;100.00
29909;BME280;36247;51.952;6.146;2022-08-19T01:50:22;101204.25;;;17.03;100.00
29909;BME280;36247;51.952;6.146;2022-08-19T01:52:48;101203.44;;;16.90;100.00
29909;BME280;36247;51.952;6.146;2022-08-19T01:55:16;101202.50;;;16.85;100.00
29909;BME280;36247;51.952;6.146;2022-08-19T01:57:47;101196.38;;;16.71;100.00
29909;BME280;36247;51.952;6.146;2022-08-19T02:00:17;101207.97;;;16.71;100.00
29909;BME280;36247;51.952;6.146;2022-08-19T02:02:42;101201.72;;;16.72;100.00
29909;BME280;36247;51.952;6.146;2022-08-19T02:05:10;101204.31;;;16.88;100.00
29909;BME280;36247;51.952;6.146;2022-08-19T02:07:37;101202.53;;;16.91;100.00
29909;BME280;36247;51.952;6.146;2022-08-19T02:10:05;101212.34;;;16.91;100.00
29909;BME280;36247;51.952;6.146;2022-08-19T02:12:30;101211.38;;;17.01;100.00
29909;BME280;36247;51.952;6.146;2022-08-19T02:14:56;101209.66;;;16.91;100.00
29909;BME280;36247;51.952;6.146;2022-08-19T02:17:21;101206.97;;;16.91;100.00
29909;BME280;36247;51.952;6.146;2022-08-19T02:19:47;101206.97;;;16.86;100.00
29909;BME280;36247;51.952;6.146;2022-08-19T02:22:14;101199.81;;;16.99;100.00
29909;BME280;36247;51.952;6.146;2022-08-19T02:24:39;101207.84;;;16.99;100.00
29909;BME280;36247;51.952;6.146;2022-08-19T02:27:05;101204.25;;;16.97;100.00
29909;BME280;36247;51.952;6.146;2022-08-19T02:29:31;101214.13;;;16.90;100.00
29909;BME280;36247;51.952;6.146;2022-08-19T02:31:56;101201.63;;;16.85;100.00
29909;BME280;36247;51.952;6.146;2022-08-19T02:34:22;101207.88;;;16.84;100.00
29909;BME280;36247;51.952;6.146;2022-08-19T02:36:50;101209.66;;;16.89;100.00
29909;BME280;36247;51.952;6.146;2022-08-19T02:39:15;101209.72;;;16.75;100.00
29909;BME280;36247;51.952;6.146;2022-08-19T02:41:41;101208.88;;;16.73;100.00
29909;BME280;36247;51.952;6.146;2022-08-19T02:44:06;101203.53;;;16.63;100.00
29909;BME280;36247;51.952;6.146;2022-08-19T02:46:33;101210.75;;;16.54;100.00
29909;BME280;36247;51.952;6.146;2022-08-19T02:49:06;101215.19;;;16.57;100.00
29909;BME280;36247;51.952;6.146;2022-08-19T02:51:38;101211.56;;;16.63;100.00
29909;BME280;36247;51.952;6.146;2022-08-19T02:54:05;101212.38;;;16.79;100.00
29909;BME280;36247;51.952;6.146;2022-08-19T02:56:31;101214.13;;;16.92;100.00
29909;BME280;36247;51.952;6.146;2022-08-19T02:58:59;101209.66;;;16.85;100.00
29909;BME280;36247;51.952;6.146;2022-08-19T03:01:28;101211.63;;;16.55;100.00
29909;BME280;36247;51.952;6.146;2022-08-19T03:03:55;101211.69;;;16.41;100.00
29909;BME280;36247;51.952;6.146;2022-08-19T03:06:22;101205.47;;;16.36;100.00
29909;BME280;36247;51.952;6.146;2022-08-19T03:08:48;101215.25;;;16.38;100.00
29909;BME280;36247;51.952;6.146;2022-08-19T03:11:26;101206.28;;;16.52;100.00
29909;BME280;36247;51.952;6.146;2022-08-19T03:13:52;101204.47;;;16.59;100.00
29909;BME280;36247;51.952;6.146;2022-08-19T03:16:20;101197.41;;;16.47;100.00
29909;BME280;36247;51.952;6.146;2022-08-19T03:18:46;101202.00;;;16.17;100.00
29909;BME280;36247;51.952;6.146;2022-08-19T03:21:17;101215.41;;;15.95;100.00
29909;BME280;36247;51.952;6.146;2022-08-19T03:23:44;101210.00;;;16.21;100.00
29909;BME280;36247;51.952;6.146;2022-08-19T03:26:10;101206.41;;;16.29;100.00
29909;BME280;36247;51.952;6.146;2022-08-19T03:28:36;101210.97;;;15.99;100.00
29909;BME280;36247;51.952;6.146;2022-08-19T03:31:07;101206.50;;;15.99;100.00
29909;BME280;36247;51.952;6.146;2022-08-19T03:33:34;101210.94;;;15.94;100.00
29909;BME280;36247;51.952;6.146;2022-08-19T03:36:09;101212.69;;;16.08;100.00
29909;BME280;36247;51.952;6.146;2022-08-19T03:38:38;101221.63;;;16.02;100.00
29909;BME280;36247;51.952;6.146;2022-08-19T03:41:10;101226.09;;;15.95;100.00
29909;BME280;36247;51.952;6.146;2022-08-19T03:43:37;101217.19;;;15.93;100.00
29909;BME280;36247;51.952;6.146;2022-08-19T03:46:08;101224.31;;;15.82;100.00
29909;BME280;36247;51.952;6.146;2022-08-19T03:48:36;101218.97;;;15.90;100.00
29909;BME280;36247;51.952;6.146;2022-08-19T03:51:02;101228.78;;;15.86;100.00
29909;BME280;36247;51.952;6.146;2022-08-19T03:53:29;101231.47;;;15.86;100.00
29909;BME280;36247;51.952;6.146;2022-08-19T03:55:56;101218.97;;;15.73;100.00
29909;BME280;36247;51.952;6.146;2022-08-19T03:58:22;101220.75;;;15.60;100.00
29909;BME280;36247;51.952;6.146;2022-08-19T04:00:48;101225.22;;;15.56;100.00
29909;BME280;36247;51.952;6.146;2022-08-19T04:03:13;101221.66;;;15.71;100.00
29909;BME280;36247;51.952;6.146;2022-08-19T04:05:39;101213.63;;;15.73;100.00
29909;BME280;36247;51.952;6.146;2022-08-19T04:08:04;101219.84;;;15.68;100.00
29909;BME280;36247;51.952;6.146;2022-08-19T04:10:40;101219.00;;;15.62;100.00
29909;BME280;36247;51.952;6.146;2022-08-19T04:13:06;101213.66;;;15.54;100.00
29909;BME280;36247;51.952;6.146;2022-08-19T04:15:32;101218.09;;;15.55;100.00
29909;BME280;36247;51.952;6.146;2022-08-19T04:18:05;101211.88;;;15.62;100.00
29909;BME280;36247;51.952;6.146;2022-08-19T04:20:38;101216.31;;;15.68;100.00
29909;BME280;36247;51.952;6.146;2022-08-19T04:23:05;101207.41;;;15.71;100.00
29909;BME280;36247;51.952;6.146;2022-08-19T04:25:38;101208.28;;;15.73;100.00
29909;BME280;36247;51.952;6.146;2022-08-19T04:28:04;101205.63;;;15.73;100.00
29909;BME280;36247;51.952;6.146;2022-08-19T04:30:30;101207.41;;;15.72;100.00
29909;BME280;36247;51.952;6.146;2022-08-19T04:32:55;101202.97;;;15.60;100.00
29909;BME280;36247;51.952;6.146;2022-08-19T04:35:20;101207.41;;;15.61;100.00
29909;BME280;36247;51.952;6.146;2022-08-19T04:37:46;101194.97;;;15.57;100.00
29909;BME280;36247;51.952;6.146;2022-08-19T04:40:12;101193.16;;;15.61;100.00
29909;BME280;36247;51.952;6.146;2022-08-19T04:42:56;101195.81;;;15.65;100.00
29909;BME280;36247;51.952;6.146;2022-08-19T04:45:21;101198.50;;;15.87;100.00
29909;BME280;36247;51.952;6.146;2022-08-19T04:47:47;101194.06;;;15.80;100.00
29909;BME280;36247;51.952;6.146;2022-08-19T04:50:13;101194.94;;;15.69;100.00
29909;BME280;36247;51.952;6.146;2022-08-19T04:52:39;101193.19;;;15.48;100.00
29909;BME280;36247;51.952;6.146;2022-08-19T04:55:09;101201.16;;;15.68;100.00
29909;BME280;36247;51.952;6.146;2022-08-19T04:57:35;101205.63;;;15.88;100.00
29909;BME280;36247;51.952;6.146;2022-08-19T05:00:04;101218.13;;;15.78;100.00
29909;BME280;36247;51.952;6.146;2022-08-19T05:02:30;101217.19;;;15.64;100.00
29909;BME280;36247;51.952;6.146;2022-08-19T05:04:57;101220.75;;;15.58;100.00
29909;BME280;36247;51.952;6.146;2022-08-19T05:07:26;101219.88;;;15.58;100.00
29909;BME280;36247;51.952;6.146;2022-08-19T05:09:52;101212.75;;;15.52;100.00
29909;BME280;36247;51.952;6.146;2022-08-19T05:12:17;101217.22;;;15.55;100.00
29909;BME280;36247;51.952;6.146;2022-08-19T05:14:45;101222.53;;;15.68;100.00
29909;BME280;36247;51.952;6.146;2022-08-19T05:17:13;101215.44;;;15.72;100.00
29909;BME280;36247;51.952;6.146;2022-08-19T05:19:38;101206.50;;;15.73;100.00
29909;BME280;36247;51.952;6.146;2022-08-19T05:22:22;101202.97;;;15.40;100.00
29909;BME280;36247;51.952;6.146;2022-08-19T05:25:09;101206.53;;;15.48;100.00
29909;BME280;36247;51.952;6.146;2022-08-19T05:27:34;101207.41;;;15.60;100.00
29909;BME280;36247;51.952;6.146;2022-08-19T05:30:00;101206.53;;;15.51;100.00
29909;BME280;36247;51.952;6.146;2022-08-19T05:32:27;101205.66;;;15.59;100.00
29909;BME280;36247;51.952;6.146;2022-08-19T05:34:52;101202.06;;;15.86;100.00
29909;BME280;36247;51.952;6.146;2022-08-19T05:37:19;101194.91;;;16.07;100.00
29909;BME280;36247;51.952;6.146;2022-08-19T05:39:44;101204.66;;;16.11;100.00
29909;BME280;36247;51.952;6.146;2022-08-19T05:42:11;101206.38;;;16.35;100.00
29909;BME280;36247;51.952;6.146;2022-08-19T05:44:41;101202.84;;;16.25;100.00
29909;BME280;36247;51.952;6.146;2022-08-19T05:47:11;101198.38;;;16.30;100.00
29909;BME280;36247;51.952;6.146;2022-08-19T05:49:38;101201.84;;;16.45;100.00
29909;BME280;36247;51.952;6.146;2022-08-19T05:52:06;101206.19;;;16.69;100.00
29909;BME280;36247;51.952;6.146;2022-08-19T05:54:33;101197.22;;;16.87;100.00
29909;BME280;36247;51.952;6.146;2022-08-19T05:57:01;101200.72;;;16.97;100.00
29909;BME280;36247;51.952;6.146;2022-08-19T05:59:27;101202.28;;;17.24;100.00
29909;BME280;36247;51.952;6.146;2022-08-19T06:01:53;101205.03;;;17.16;100.00
29909;BME280;36247;51.952;6.146;2022-08-19T06:04:22;101211.25;;;17.23;100.00
29909;BME280;36247;51.952;6.146;2022-08-19T06:06:50;101211.16;;;17.31;100.00
29909;BME280;36247;51.952;6.146;2022-08-19T06:09:17;101210.16;;;17.45;100.00
29909;BME280;36247;51.952;6.146;2022-08-19T06:11:46;101208.22;;;17.58;100.00
29909;BME280;36247;51.952;6.146;2022-08-19T06:14:15;101205.53;;;17.60;100.00
29909;BME280;36247;51.952;6.146;2022-08-19T06:16:41;101213.41;;;17.78;100.00
29909;BME280;36247;51.952;6.146;2022-08-19T06:19:10;101203.47;;;17.93;100.00
29909;BME280;36247;51.952;6.146;2022-08-19T06:21:38;101201.59;;;18.01;100.00
29909;BME280;36247;51.952;6.146;2022-08-19T06:24:06;101199.81;;;18.00;100.00
29909;BME280;36247;51.952;6.146;2022-08-19T06:26:35;101203.13;;;18.22;100.00
29909;BME280;36247;51.952;6.146;2022-08-19T06:29:03;101207.41;;;18.37;100.00
29909;BME280;36247;51.952;6.146;2022-08-19T06:31:30;101209.22;;;18.37;100.00
29909;BME280;36247;51.952;6.146;2022-08-19T06:33:59;101212.81;;;18.34;100.00
29909;BME280;36247;51.952;6.146;2022-08-19T06:36:27;101218.91;;;18.48;100.00
29909;BME280;36247;51.952;6.146;2022-08-19T06:38:58;101216.41;;;18.33;100.00
29909;BME280;36247;51.952;6.146;2022-08-19T06:41:28;101221.81;;;18.30;100.00
29909;BME280;36247;51.952;6.146;2022-08-19T06:43:54;101224.19;;;18.55;100.00
29909;BME280;36247;51.952;6.146;2022-08-19T06:46:20;101217.00;;;18.57;100.00
29909;BME280;36247;51.952;6.146;2022-08-19T06:48:46;101223.13;;;18.68;100.00
29909;BME280;36247;51.952;6.146;2022-08-19T06:51:17;101221.13;;;18.85;100.00
29909;BME280;36247;51.952;6.146;2022-08-19T06:53:46;101227.63;;;18.67;100.00
29909;BME280;36247;51.952;6.146;2022-08-19T06:56:17;101222.03;;;18.81;100.00
29909;BME280;36247;51.952;6.146;2022-08-19T06:58:44;101226.13;;;19.09;100.00
29909;BME280;36247;51.952;6.146;2022-08-19T07:01:12;101226.28;;;18.99;100.00
29909;BME280;36247;51.952;6.146;2022-08-19T07:03:38;101234.69;;;19.34;100.00
29909;BME280;36247;51.952;6.146;2022-08-19T07:06:09;101227.66;;;19.27;100.00
29909;BME280;36247;51.952;6.146;2022-08-19T07:08:36;101228.22;;;19.47;100.00
29909;BME280;36247;51.952;6.146;2022-08-19T07:11:07;101236.25;;;19.49;100.00
29909;BME280;36247;51.952;6.146;2022-08-19T07:13:33;101234.31;;;19.59;100.00
29909;BME280;36247;51.952;6.146;2022-08-19T07:16:07;101228.91;;;19.60;100.00
29909;BME280;36247;51.952;6.146;2022-08-19T07:18:35;101237.72;;;19.67;100.00
29909;BME280;36247;51.952;6.146;2022-08-19T07:24:00;101234.69;;;19.88;100.00
29909;BME280;36247;51.952;6.146;2022-08-19T07:26:28;101241.84;;;19.88;100.00
29909;BME280;36247;51.952;6.146;2022-08-19T07:28:55;101233.78;;;19.88;100.00
29909;BME280;36247;51.952;6.146;2022-08-19T07:31:23;101232.16;;;20.28;100.00
29909;BME280;36247;51.952;6.146;2022-08-19T07:33:50;101231.16;;;20.32;100.00
29909;BME280;36247;51.952;6.146;2022-08-19T07:36:20;101233.34;;;20.13;100.00
29909;BME280;36247;51.952;6.146;2022-08-19T07:38:48;101239.63;;;20.55;100.00
29909;BME280;36247;51.952;6.146;2022-08-19T07:41:20;101241.72;;;20.42;100.00
29909;BME280;36247;51.952;6.146;2022-08-19T07:43:48;101247.19;;;20.38;100.00
29909;BME280;36247;51.952;6.146;2022-08-19T07:46:14;101244.00;;;20.17;100.00
29909;BME280;36247;51.952;6.146;2022-08-19T07:48:44;101247.97;;;20.43;100.00
29909;BME280;36247;51.952;6.146;2022-08-19T07:51:15;101253.09;;;20.55;100.00
29909;BME280;36247;51.952;6.146;2022-08-19T07:53:41;101249.81;;;20.41;100.00
29909;BME280;36247;51.952;6.146;2022-08-19T07:56:11;101258.59;;;20.49;100.00
29909;BME280;36247;51.952;6.146;2022-08-19T07:58:39;101257.31;;;20.69;100.00
29909;BME280;36247;51.952;6.146;2022-08-19T08:01:07;101249.66;;;20.49;100.00
29909;BME280;36247;51.952;6.146;2022-08-19T08:03:36;101263.59;;;20.71;100.00
29909;BME280;36247;51.952;6.146;2022-08-19T08:06:20;101256.31;;;21.13;100.00
29909;BME280;36247;51.952;6.146;2022-08-19T08:09:05;101263.38;;;21.19;100.00
29909;BME280;36247;51.952;6.146;2022-08-19T08:11:43;101267.06;;;21.15;100.00
29909;BME280;36247;51.952;6.146;2022-08-19T08:14:19;101279.19;;;20.95;100.00
29909;BME280;36247;51.952;6.146;2022-08-19T08:16:45;101281.63;;;21.08;100.00
29909;BME280;36247;51.952;6.146;2022-08-19T08:19:12;101284.25;;;21.11;100.00
29909;BME280;36247;51.952;6.146;2022-08-19T08:21:40;101276.59;;;21.30;100.00
29909;BME280;36247;51.952;6.146;2022-08-19T08:24:06;101279.69;;;21.13;100.00
29909;BME280;36247;51.952;6.146;2022-08-19T08:26:32;101272.75;;;21.03;100.00
29909;BME280;36247;51.952;6.146;2022-08-19T08:28:58;101282.66;;;21.40;100.00
29909;BME280;36247;51.952;6.146;2022-08-19T08:31:23;101280.38;;;21.96;100.00
29909;BME280;36247;51.952;6.146;2022-08-19T08:33:49;101297.66;;;21.53;100.00
29909;BME280;36247;51.952;6.146;2022-08-19T08:36:15;101285.84;;;21.93;100.00
29909;BME280;36247;51.952;6.146;2022-08-19T08:38:43;101291.25;;;21.57;100.00
29909;BME280;36247;51.952;6.146;2022-08-19T08:43:54;101290.06;;;21.67;100.00
29909;BME280;36247;51.952;6.146;2022-08-19T08:46:30;101290.91;;;22.06;100.00
29909;BME280;36247;51.952;6.146;2022-08-19T08:49:19;101284.63;;;22.05;100.00
29909;BME280;36247;51.952;6.146;2022-08-19T08:51:52;101289.03;;;22.08;100.00
29909;BME280;36247;51.952;6.146;2022-08-19T08:54:24;101295.44;;;22.05;100.00
29909;BME280;36247;51.952;6.146;2022-08-19T08:56:53;101280.31;;;22.31;100.00
29909;BME280;36247;51.952;6.146;2022-08-19T08:59:30;101290.34;;;22.90;100.00
29909;BME280;36247;51.952;6.146;2022-08-19T09:01:58;101279.22;;;22.40;100.00
29909;BME280;36247;51.952;6.146;2022-08-19T09:04:23;101288.56;;;22.26;100.00
29909;BME280;36247;51.952;6.146;2022-08-19T09:09:42;101277.47;;;22.98;99.79
29909;BME280;36247;51.952;6.146;2022-08-19T09:15:09;101281.72;;;23.07;98.56
29909;BME280;36247;51.952;6.146;2022-08-19T09:17:36;101278.47;;;23.52;97.14
29909;BME280;36247;51.952;6.146;2022-08-19T09:22:37;101279.06;;;23.62;90.52
29909;BME280;36247;51.952;6.146;2022-08-19T09:25:04;101278.31;;;23.84;88.25
29909;BME280;36247;51.952;6.146;2022-08-19T09:27:30;101286.22;;;23.63;87.29
29909;BME280;36247;51.952;6.146;2022-08-19T09:29:57;101284.41;;;24.17;85.92
29909;BME280;36247;51.952;6.146;2022-08-19T09:32:23;101283.09;;;24.29;81.70
29909;BME280;36247;51.952;6.146;2022-08-19T09:34:49;101279.81;;;24.19;81.40
29909;BME280;36247;51.952;6.146;2022-08-19T09:37:14;101268.69;;;24.52;79.89
29909;BME280;36247;51.952;6.146;2022-08-19T09:39:40;101281.28;;;24.78;78.47
29909;BME280;36247;51.952;6.146;2022-08-19T09:42:07;101280.03;;;24.38;78.44
29909;BME280;36247;51.952;6.146;2022-08-19T09:44:41;101270.06;;;24.64;75.22
29909;BME280;36247;51.952;6.146;2022-08-19T09:47:07;101271.03;;;25.32;73.06
29909;BME280;36247;51.952;6.146;2022-08-19T09:49:33;101273.75;;;25.32;73.47
29909;BME280;36247;51.952;6.146;2022-08-19T09:51:59;101270.00;;;25.57;72.47
29909;BME280;36247;51.952;6.146;2022-08-19T09:54:25;101273.34;;;25.42;75.67
29909;BME280;36247;51.952;6.146;2022-08-19T09:56:52;101275.63;;;25.52;74.51
29909;BME280;36247;51.952;6.146;2022-08-19T09:59:18;101270.88;;;26.00;72.40
29909;BME280;36247;51.952;6.146;2022-08-19T10:01:44;101286.25;;;26.62;69.75
29909;BME280;36247;51.952;6.146;2022-08-19T10:04:09;101273.00;;;26.35;70.09
29909;BME280;36247;51.952;6.146;2022-08-19T10:06:37;101283.28;;;26.87;66.37
29909;BME280;36247;51.952;6.146;2022-08-19T10:09:05;101280.34;;;26.91;67.06
29909;BME280;36247;51.952;6.146;2022-08-19T10:11:33;101290.41;;;27.47;65.94
29909;BME280;36247;51.952;6.146;2022-08-19T10:14:01;101285.72;;;26.93;68.08
29909;BME280;36247;51.952;6.146;2022-08-19T10:16:27;101279.38;;;26.34;69.33
29909;BME280;36247;51.952;6.146;2022-08-19T10:18:53;101279.63;;;26.88;68.10
29909;BME280;36247;51.952;6.146;2022-08-19T10:21:22;101277.22;;;27.01;67.96
29909;BME280;36247;51.952;6.146;2022-08-19T10:23:51;101279.72;;;26.66;70.44
29909;BME280;36247;51.952;6.146;2022-08-19T10:26:20;101283.03;;;26.12;76.86
29909;BME280;36247;51.952;6.146;2022-08-19T10:28:46;101284.63;;;25.96;80.92
29909;BME280;36247;51.952;6.146;2022-08-19T10:31:26;101289.38;;;25.24;85.45
29909;BME280;36247;51.952;6.146;2022-08-19T10:33:53;101292.78;;;24.60;89.87
29909;BME280;36247;51.952;6.146;2022-08-19T10:36:30;101286.31;;;26.20;82.11
29909;BME280;36247;51.952;6.146;2022-08-19T10:38:59;101291.03;;;26.96;79.71
29909;BME280;36247;51.952;6.146;2022-08-19T10:41:29;101286.69;;;26.92;79.53
29909;BME280;36247;51.952;6.146;2022-08-19T10:43:58;101290.47;;;26.69;80.19
29909;BME280;36247;51.952;6.146;2022-08-19T10:46:26;101287.63;;;27.10;78.22
29909;BME280;36247;51.952;6.146;2022-08-19T10:48:53;101278.84;;;27.95;70.95
29909;BME280;36247;51.952;6.146;2022-08-19T10:51:19;101286.63;;;26.94;78.73
29909;BME280;36247;51.952;6.146;2022-08-19T10:54:04;101283.50;;;27.93;75.33
29909;BME280;36247;51.952;6.146;2022-08-19T10:56:30;101282.53;;;27.94;75.00
29909;BME280;36247;51.952;6.146;2022-08-19T10:59:16;101276.41;;;27.37;77.61
29909;BME280;36247;51.952;6.146;2022-08-19T11:01:44;101276.41;;;27.54;75.88
29909;BME280;36247;51.952;6.146;2022-08-19T11:04:10;101280.81;;;26.22;78.29
29909;BME280;36247;51.952;6.146;2022-08-19T11:06:39;101286.31;;;26.41;77.81
29909;BME280;36247;51.952;6.146;2022-08-19T11:09:06;101284.97;;;26.70;76.30
29909;BME280;36247;51.952;6.146;2022-08-19T11:11:31;101283.94;;;27.49;72.14
29909;BME280;36247;51.952;6.146;2022-08-19T11:14:10;101277.06;;;26.64;73.85
29909;BME280;36247;51.952;6.146;2022-08-19T11:16:36;101280.16;;;26.96;72.89
29909;BME280;36247;51.952;6.146;2022-08-19T11:19:04;101278.06;;;28.11;69.46
29909;BME280;36247;51.952;6.146;2022-08-19T11:21:35;101286.03;;;27.61;71.32
29909;BME280;36247;51.952;6.146;2022-08-19T11:24:06;101278.16;;;27.00;70.88
29909;BME280;36247;51.952;6.146;2022-08-19T11:26:32;101277.09;;;28.29;68.39
29909;BME280;36247;51.952;6.146;2022-08-19T11:29:00;101277.53;;;28.55;67.16
29909;BME280;36247;51.952;6.146;2022-08-19T11:31:31;101292.81;;;27.53;67.08
29909;BME280;36247;51.952;6.146;2022-08-19T11:33:58;101286.22;;;27.93;67.57
29909;BME280;36247;51.952;6.146;2022-08-19T11:36:25;101293.75;;;27.71;66.09
29909;BME280;36247;51.952;6.146;2022-08-19T11:38:52;101283.00;;;27.12;65.82
29909;BME280;36247;51.952;6.146;2022-08-19T11:41:20;101278.31;;;27.16;65.83
29909;BME280;36247;51.952;6.146;2022-08-19T11:43:46;101277.22;;;27.01;65.73
29909;BME280;36247;51.952;6.146;2022-08-19T11:46:14;101274.06;;;28.18;62.90
29909;BME280;36247;51.952;6.146;2022-08-19T11:48:40;101272.84;;;27.89;62.74
29909;BME280;36247;51.952;6.146;2022-08-19T11:51:08;101266.78;;;28.52;61.69
29909;BME280;36247;51.952;6.146;2022-08-19T11:53:35;101267.13;;;28.63;58.06
29909;BME280;36247;51.952;6.146;2022-08-19T11:56:02;101268.63;;;28.85;55.60
29909;BME280;36247;51.952;6.146;2022-08-19T11:58:28;101268.72;;;28.50;56.05
29909;BME280;36247;51.952;6.146;2022-08-19T12:00:54;101271.25;;;28.71;56.38
29909;BME280;36247;51.952;6.146;2022-08-19T12:03:20;101272.72;;;28.60;55.92
29909;BME280;36247;51.952;6.146;2022-08-19T12:05:46;101273.69;;;28.42;58.67
29909;BME280;36247;51.952;6.146;2022-08-19T12:08:12;101273.88;;;28.72;54.88
29909;BME280;36247;51.952;6.146;2022-08-19T12:10:38;101267.66;;;29.02;54.78
29909;BME280;36247;51.952;6.146;2022-08-19T12:13:05;101275.28;;;29.75;51.30
29909;BME280;36247;51.952;6.146;2022-08-19T12:15:39;101264.03;;;29.81;51.21
29909;BME280;36247;51.952;6.146;2022-08-19T12:18:06;101268.09;;;28.94;52.85
29909;BME280;36247;51.952;6.146;2022-08-19T12:20:36;101266.31;;;28.61;54.23
29909;BME280;36247;51.952;6.146;2022-08-19T12:23:03;101259.66;;;28.99;52.49
29909;BME280;36247;51.952;6.146;2022-08-19T12:25:29;101274.41;;;29.28;51.87
29909;BME280;36247;51.952;6.146;2022-08-19T12:27:57;101268.22;;;28.59;55.08
29909;BME280;36247;51.952;6.146;2022-08-19T12:30:22;101263.41;;;28.64;55.94
29909;BME280;36247;51.952;6.146;2022-08-19T12:32:48;101267.06;;;29.29;54.14
29909;BME280;36247;51.952;6.146;2022-08-19T12:35:13;101262.03;;;29.05;53.75
29909;BME280;36247;51.952;6.146;2022-08-19T12:37:39;101260.94;;;29.25;53.49
29909;BME280;36247;51.952;6.146;2022-08-19T12:40:07;101261.75;;;30.18;49.83
29909;BME280;36247;51.952;6.146;2022-08-19T12:42:33;101264.91;;;28.70;54.69
29909;BME280;36247;51.952;6.146;2022-08-19T12:45:00;101260.38;;;29.50;52.38
29909;BME280;36247;51.952;6.146;2022-08-19T12:47:25;101254.81;;;29.20;52.08
29909;BME280;36247;51.952;6.146;2022-08-19T12:49:52;101255.78;;;29.03;51.59
29909;BME280;36247;51.952;6.146;2022-08-19T12:52:17;101257.56;;;30.13;51.05
29909;BME280;36247;51.952;6.146;2022-08-19T12:54:46;101248.22;;;29.86;49.79
29909;BME280;36247;51.952;6.146;2022-08-19T12:57:11;101243.13;;;30.25;51.19
29909;BME280;36247;51.952;6.146;2022-08-19T12:59:38;101242.09;;;29.97;50.29
29909;BME280;36247;51.952;6.146;2022-08-19T13:02:06;101242.91;;;29.99;48.85